createdAt,value
2018-04-12T00:00:03.965Z,87.48
2018-04-12T00:02:29.706Z,87.69
2018-04-12T00:04:55.437Z,87.91
2018-04-12T00:07:21.168Z,87.96
2018-04-12T00:09:46.884Z,88.03
2018-04-12T00:12:12.634Z,88.23
2018-04-12T00:14:38.368Z,88.44
2018-04-12T00:17:04.113Z,88.65
2018-04-12T00:19:29.842Z,88.83
2018-04-12T00:21:55.572Z,88.82
2018-04-12T00:24:21.296Z,88.62
2018-04-12T00:26:47.040Z,88.55
2018-04-12T00:29:12.769Z,88.75
2018-04-12T00:31:38.517Z,88.76
2018-04-12T00:34:04.236Z,88.66
2018-04-12T00:36:29.974Z,88.68
2018-04-12T00:38:55.705Z,88.83
2018-04-12T00:41:21.428Z,88.91
2018-04-12T00:43:47.162Z,88.82
2018-04-12T00:46:12.909Z,88.83
2018-04-12T00:48:38.649Z,89.12
2018-04-12T00:51:04.383Z,89.35
2018-04-12T00:53:42.593Z,89.25
2018-04-12T00:56:08.337Z,89.40
2018-04-12T00:58:34.061Z,89.52
2018-04-12T01:00:59.791Z,89.67
2018-04-12T01:03:25.523Z,89.36
2018-04-12T01:05:51.253Z,89.34
2018-04-12T01:08:16.983Z,89.16
2018-04-12T01:10:42.728Z,89.19
2018-04-12T01:13:08.445Z,89.47
2018-04-12T01:15:34.175Z,89.41
2018-04-12T01:17:59.912Z,89.31
2018-04-12T01:20:25.660Z,89.50
2018-04-12T01:22:51.401Z,89.79
2018-04-12T01:25:17.129Z,89.68
2018-04-12T01:27:42.859Z,89.70
2018-04-12T01:30:08.592Z,89.77
2018-04-12T01:32:34.336Z,89.97
2018-04-12T01:35:00.073Z,90.07
2018-04-12T01:37:25.806Z,90.11
2018-04-12T01:39:51.534Z,90.27
2018-04-12T01:42:17.267Z,90.28
2018-04-12T01:44:42.997Z,90.33
2018-04-12T01:47:08.732Z,90.30
2018-04-12T01:49:34.468Z,90.40
2018-04-12T01:52:00.213Z,90.50
2018-04-12T01:54:25.958Z,90.25
2018-04-12T01:56:51.696Z,89.88
2018-04-12T01:59:17.428Z,90.10
2018-04-12T02:01:43.169Z,90.05
2018-04-12T02:04:08.899Z,89.85
2018-04-12T02:06:34.636Z,89.86
2018-04-12T02:09:00.375Z,89.90
2018-04-12T02:11:26.117Z,89.80
2018-04-12T02:13:51.868Z,89.67
2018-04-12T02:16:17.612Z,89.45
2018-04-12T02:18:43.360Z,89.49
2018-04-12T02:21:09.078Z,89.55
2018-04-12T02:23:34.820Z,89.53
2018-04-12T02:26:00.545Z,89.68
2018-04-12T02:28:26.285Z,89.54
2018-04-12T02:30:52.008Z,89.78
2018-04-12T02:33:17.741Z,89.97
2018-04-12T02:35:43.464Z,90.07
2018-04-12T02:38:09.212Z,90.29
2018-04-12T02:40:34.941Z,90.05
2018-04-12T02:43:00.679Z,90.26
2018-04-12T02:45:26.416Z,90.13
2018-04-12T02:47:52.157Z,90.30
2018-04-12T02:50:17.892Z,90.17
2018-04-12T02:52:43.628Z,90.08
2018-04-12T02:55:09.358Z,90.04
2018-04-12T02:57:35.093Z,89.92
2018-04-12T03:00:00.845Z,89.86
2018-04-12T03:02:26.586Z,89.75
2018-04-12T03:04:52.315Z,89.54
2018-04-12T03:07:18.036Z,89.67
2018-04-12T03:09:43.778Z,89.74
2018-04-12T03:12:09.514Z,89.78
2018-04-12T03:14:35.252Z,89.75
2018-04-12T03:17:00.979Z,89.80
2018-04-12T03:19:26.712Z,89.91
2018-04-12T03:21:52.430Z,89.92
2018-04-12T03:24:18.175Z,90.02
2018-04-12T03:26:43.907Z,90.24
2018-04-12T03:29:09.647Z,90.46
2018-04-12T03:31:35.381Z,90.49
2018-04-12T03:34:01.124Z,90.64
2018-04-12T03:36:26.849Z,90.83
2018-04-12T03:38:52.580Z,90.82
2018-04-12T03:41:18.321Z,90.93
2018-04-12T03:43:44.059Z,91.20
2018-04-12T03:46:09.818Z,91.31
2018-04-12T03:48:35.581Z,91.41
2018-04-12T03:51:01.300Z,91.54
2018-04-12T03:53:27.043Z,91.50
2018-04-12T03:55:52.768Z,91.62
2018-04-12T03:58:18.499Z,91.92
2018-04-12T04:00:44.252Z,91.88
2018-04-12T04:03:09.989Z,92.03
2018-04-12T04:05:35.728Z,91.82
2018-04-12T04:08:01.465Z,91.97
2018-04-12T04:10:27.204Z,92.02
2018-04-12T04:12:52.935Z,92.13
2018-04-12T04:15:31.146Z,92.24
2018-04-12T04:18:09.361Z,93.33
2018-04-12T04:20:47.706Z,91.80
2018-04-12T04:23:13.419Z,91.62
2018-04-12T04:25:39.152Z,92.00
2018-04-12T04:28:04.884Z,92.23
2018-04-12T04:30:30.635Z,92.01
2018-04-12T04:32:56.364Z,92.17
2018-04-12T04:35:22.116Z,92.15
2018-04-12T04:37:47.901Z,92.23
2018-04-12T04:40:13.635Z,92.33
2018-04-12T04:42:39.369Z,92.33
2018-04-12T04:45:05.129Z,92.57
2018-04-12T04:47:30.868Z,92.45
2018-04-12T04:49:56.600Z,92.51
2018-04-12T04:52:22.329Z,92.43
2018-04-12T04:54:48.055Z,92.50
2018-04-12T04:57:13.785Z,92.46
2018-04-12T04:59:39.507Z,92.46
2018-04-12T05:02:05.252Z,92.48
2018-04-12T05:04:30.985Z,92.38
2018-04-12T05:06:56.696Z,92.45
2018-04-12T05:09:22.432Z,92.33
2018-04-12T05:11:48.152Z,92.30
2018-04-12T05:14:13.884Z,92.15
2018-04-12T05:16:39.596Z,92.06
2018-04-12T05:19:05.321Z,92.01
2018-04-12T05:21:31.055Z,91.89
2018-04-12T05:23:56.777Z,91.71
2018-04-12T05:26:22.525Z,91.78
2018-04-12T05:28:48.256Z,91.64
2018-04-12T05:31:13.983Z,91.46
2018-04-12T05:33:39.708Z,91.33
2018-04-12T05:36:05.440Z,91.37
2018-04-12T05:38:31.159Z,91.06
2018-04-12T05:40:56.889Z,90.80
2018-04-12T05:43:22.605Z,90.53
2018-04-12T05:45:48.356Z,90.51
2018-04-12T05:48:14.091Z,90.26
2018-04-12T05:50:39.828Z,90.23
2018-04-12T05:53:05.556Z,90.08
2018-04-12T05:55:31.293Z,89.93
2018-04-12T05:57:57.028Z,89.85
2018-04-12T06:00:22.765Z,89.74
2018-04-12T06:02:48.492Z,89.45
2018-04-12T06:05:14.243Z,89.32
2018-04-12T06:07:39.961Z,89.04
2018-04-12T06:10:05.701Z,89.08
2018-04-12T06:12:31.432Z,88.85
2018-04-12T06:14:57.165Z,88.56
2018-04-12T06:17:22.889Z,88.18
2018-04-12T06:19:48.620Z,88.14
2018-04-12T06:22:14.356Z,88.04
2018-04-12T06:24:40.094Z,87.43
2018-04-12T06:27:05.830Z,88.01
2018-04-12T06:29:31.548Z,87.53
2018-04-12T06:31:57.288Z,87.29
2018-04-12T06:34:22.997Z,86.99
2018-04-12T06:36:48.735Z,86.52
2018-04-12T06:39:14.455Z,86.83
2018-04-12T06:41:40.184Z,86.82
2018-04-12T06:44:05.917Z,86.59
2018-04-12T06:46:31.655Z,86.21
2018-04-12T06:48:57.380Z,86.28
2018-04-12T06:51:23.106Z,86.07
2018-04-12T06:53:48.832Z,86.03
2018-04-12T06:56:14.569Z,85.77
2018-04-12T06:58:40.293Z,85.12
2018-04-12T07:01:06.037Z,85.48
2018-04-12T07:03:31.754Z,85.42
2018-04-12T07:05:57.497Z,85.00
2018-04-12T07:10:53.551Z,84.56
2018-04-12T07:13:19.267Z,84.15
2018-04-12T07:15:45.000Z,84.29
2018-04-12T07:18:10.731Z,83.63
2018-04-12T07:20:36.466Z,83.99
2018-04-12T07:23:02.197Z,82.91
2018-04-12T07:25:27.929Z,82.28
2018-04-12T07:27:53.659Z,82.82
2018-04-12T07:30:19.380Z,81.84
2018-04-12T07:32:45.100Z,81.58
2018-04-12T07:35:10.812Z,81.27
2018-04-12T07:37:36.547Z,81.53
2018-04-12T07:40:02.285Z,81.90
2018-04-12T07:42:28.012Z,81.32
2018-04-12T07:44:53.734Z,80.27
2018-04-12T07:47:19.469Z,78.65
2018-04-12T07:49:45.206Z,78.93
2018-04-12T07:52:10.960Z,78.96
2018-04-12T07:54:36.699Z,79.54
2018-04-12T07:57:02.432Z,79.09
2018-04-12T07:59:28.157Z,79.34
2018-04-12T08:01:53.901Z,78.24
2018-04-12T08:04:19.624Z,77.56
2018-04-12T08:06:45.365Z,78.46
2018-04-12T08:09:11.089Z,77.08
2018-04-12T08:11:36.813Z,76.33
2018-04-12T08:14:02.538Z,76.03
2018-04-12T08:16:28.282Z,75.63
2018-04-12T08:18:54.013Z,76.33
2018-04-12T08:21:19.742Z,75.02
2018-04-12T08:23:45.460Z,75.07
2018-04-12T08:26:11.186Z,75.80
2018-04-12T08:28:36.904Z,75.49
2018-04-12T08:31:02.641Z,74.55
2018-04-12T08:33:28.361Z,74.53
2018-04-12T08:35:54.118Z,73.79
2018-04-12T08:38:19.835Z,74.29
2018-04-12T08:40:45.565Z,74.44
2018-04-12T08:43:11.293Z,72.53
2018-04-12T08:45:37.044Z,72.81
2018-04-12T08:48:02.794Z,73.82
2018-04-12T08:50:28.526Z,71.91
2018-04-12T08:52:54.272Z,73.10
2018-04-12T08:55:19.993Z,74.10
2018-04-12T08:57:45.736Z,72.58
2018-04-12T09:00:11.465Z,74.16
2018-04-12T09:02:37.206Z,72.03
2018-04-12T09:05:02.938Z,72.12
2018-04-12T09:07:28.677Z,72.68
2018-04-12T09:09:54.420Z,71.74
2018-04-12T09:12:20.153Z,71.59
2018-04-12T09:14:45.869Z,71.77
2018-04-12T09:17:11.613Z,72.06
2018-04-12T09:19:37.350Z,71.38
2018-04-12T09:22:03.101Z,70.90
2018-04-12T09:24:28.837Z,70.89
2018-04-12T09:26:54.587Z,72.20
2018-04-12T09:29:20.335Z,73.25
2018-04-12T09:31:46.080Z,72.08
2018-04-12T09:34:11.829Z,71.03
2018-04-12T09:36:37.571Z,71.82
2018-04-12T09:39:05.173Z,72.72
2018-04-12T09:41:30.932Z,72.58
2018-04-12T09:46:29.178Z,71.46
2018-04-12T09:48:54.912Z,70.30
2018-04-12T09:51:20.626Z,71.46
2018-04-12T09:53:46.383Z,71.02
2018-04-12T09:56:12.100Z,71.80
2018-04-12T09:58:37.842Z,70.89
2018-04-12T10:01:09.777Z,71.33
2018-04-12T10:03:35.536Z,71.81
2018-04-12T10:06:04.253Z,71.30
2018-04-12T10:08:30.001Z,69.90
2018-04-12T10:10:55.724Z,70.24
2018-04-12T10:13:21.455Z,69.41
2018-04-12T10:15:47.181Z,69.33
2018-04-12T10:18:12.910Z,71.43
2018-04-12T10:20:38.625Z,72.09
2018-04-12T10:23:04.352Z,71.60
2018-04-12T10:25:30.089Z,71.05
2018-04-12T10:27:55.816Z,70.84
2018-04-12T10:30:21.537Z,70.51
2018-04-12T10:32:47.326Z,69.77
2018-04-12T10:35:13.001Z,70.64
2018-04-12T10:37:38.728Z,69.38
2018-04-12T10:40:04.448Z,69.60
2018-04-12T10:42:30.187Z,69.62
2018-04-12T10:44:55.920Z,70.54
2018-04-12T10:47:21.667Z,69.48
2018-04-12T10:49:47.391Z,67.85
2018-04-12T10:52:13.114Z,70.12
2018-04-12T10:54:38.856Z,68.74
2018-04-12T10:57:04.575Z,68.98
2018-04-12T10:59:30.341Z,69.75
2018-04-12T11:01:56.064Z,68.52
2018-04-12T11:04:21.808Z,68.17
2018-04-12T11:06:47.544Z,68.65
2018-04-12T11:09:13.267Z,69.32
2018-04-12T11:11:38.991Z,68.85
2018-04-12T11:14:04.728Z,69.09
2018-04-12T11:16:30.435Z,68.03
2018-04-12T11:18:56.161Z,67.72
2018-04-12T11:21:21.909Z,67.53
2018-04-12T11:23:47.652Z,67.58
2018-04-12T11:26:13.364Z,68.32
2018-04-12T11:28:39.095Z,68.65
2018-04-12T11:31:04.824Z,67.84
2018-04-12T11:33:30.551Z,67.93
2018-04-12T11:35:56.281Z,67.76
2018-04-12T11:38:22.009Z,68.41
2018-04-12T11:40:47.732Z,68.66
2018-04-12T11:43:13.461Z,68.41
2018-04-12T11:45:39.196Z,68.65
2018-04-12T11:48:04.917Z,68.19
2018-04-12T11:50:30.640Z,67.52
2018-04-12T11:52:56.356Z,66.88
2018-04-12T11:55:22.093Z,67.84
2018-04-12T11:57:47.812Z,66.89
2018-04-12T12:00:13.536Z,66.94
2018-04-12T12:02:39.265Z,68.09
2018-04-12T12:05:05.016Z,68.25
2018-04-12T12:07:30.747Z,68.94
2018-04-12T12:09:56.472Z,68.85
2018-04-12T12:12:22.260Z,68.02
2018-04-12T12:14:47.949Z,68.05
2018-04-12T12:17:13.692Z,68.20
2018-04-12T12:19:39.424Z,67.69
2018-04-12T12:22:05.162Z,67.58
2018-04-12T12:24:30.919Z,67.95
2018-04-12T12:26:56.661Z,67.91
2018-04-12T12:29:22.404Z,66.66
2018-04-12T12:31:48.121Z,67.96
2018-04-12T12:34:13.861Z,67.91
2018-04-12T12:36:39.579Z,67.94
2018-04-12T12:39:05.328Z,67.72
2018-04-12T12:41:31.039Z,67.45
2018-04-12T12:43:56.780Z,67.87
2018-04-12T12:46:22.513Z,67.83
2018-04-12T12:48:48.248Z,67.70
2018-04-12T12:51:13.986Z,67.58
2018-04-12T12:53:39.705Z,68.30
2018-04-12T12:56:05.475Z,67.92
2018-04-12T12:58:31.177Z,67.91
2018-04-12T13:00:56.917Z,67.97
2018-04-12T13:03:22.640Z,69.08
2018-04-12T13:05:48.400Z,69.41
2018-04-12T13:08:14.125Z,69.45
2018-04-12T13:10:39.860Z,69.23
2018-04-12T13:13:05.581Z,69.66
2018-04-12T13:15:31.325Z,69.23
2018-04-12T13:17:57.059Z,69.55
2018-04-12T13:20:22.796Z,69.86
2018-04-12T13:22:48.512Z,70.67
2018-04-12T13:25:14.244Z,70.27
2018-04-12T13:27:39.987Z,69.82
2018-04-12T13:30:05.782Z,69.83
2018-04-12T13:32:31.523Z,69.03
2018-04-12T13:34:57.256Z,69.60
2018-04-12T13:37:23.004Z,69.36
2018-04-12T13:39:48.746Z,68.55
2018-04-12T13:42:14.477Z,69.36
2018-04-12T13:44:40.253Z,69.43
2018-04-12T13:47:06.002Z,71.16
2018-04-12T13:49:31.746Z,72.15
2018-04-12T13:51:57.482Z,72.60
2018-04-12T13:54:23.225Z,72.78
2018-04-12T13:56:48.972Z,72.54
2018-04-12T13:59:14.712Z,73.14
2018-04-12T14:01:40.459Z,73.45
2018-04-12T14:04:06.195Z,73.62
2018-04-12T14:06:31.949Z,73.57
2018-04-12T14:08:57.684Z,73.88
2018-04-12T14:11:23.424Z,74.04
2018-04-12T14:13:49.152Z,72.83
2018-04-12T14:16:14.908Z,73.07
2018-04-12T14:18:40.636Z,72.16
2018-04-12T14:21:06.388Z,71.76
2018-04-12T14:23:32.117Z,72.11
2018-04-12T14:25:57.881Z,72.61
2018-04-12T14:28:23.890Z,73.20
2018-04-12T14:30:49.680Z,73.65
2018-04-12T14:33:15.474Z,73.00
2018-04-12T14:35:41.300Z,73.45
2018-04-12T14:38:07.033Z,72.79
2018-04-12T14:40:32.771Z,73.20
2018-04-12T14:42:58.512Z,73.35
2018-04-12T14:45:24.252Z,73.30
2018-04-12T14:47:49.995Z,73.40
2018-04-12T14:50:15.749Z,73.18
2018-04-12T14:52:41.484Z,74.05
2018-04-12T14:55:07.233Z,73.73
2018-04-12T14:57:32.972Z,73.63
2018-04-12T14:59:59.340Z,73.68
2018-04-12T15:02:25.092Z,73.26
2018-04-12T15:04:50.824Z,73.36
2018-04-12T15:07:16.577Z,73.44
2018-04-12T15:09:42.308Z,73.63
2018-04-12T15:12:08.052Z,73.94
2018-04-12T15:14:33.799Z,73.99
2018-04-12T15:16:59.550Z,73.79
2018-04-12T15:19:25.290Z,74.14
2018-04-12T15:21:51.034Z,73.74
2018-04-12T15:24:16.760Z,73.27
2018-04-12T15:26:42.494Z,73.54
2018-04-12T15:29:08.248Z,73.96
2018-04-12T15:31:33.993Z,73.80
2018-04-12T15:33:59.737Z,73.78
2018-04-12T15:36:25.468Z,72.91
2018-04-12T15:38:51.197Z,73.67
2018-04-12T15:41:16.940Z,72.69
2018-04-12T15:43:42.664Z,73.07
2018-04-12T15:46:08.408Z,73.77
2018-04-12T15:48:34.141Z,73.38
2018-04-12T15:50:59.893Z,73.95
2018-04-12T15:53:25.616Z,73.83
2018-04-12T15:55:51.353Z,74.13
2018-04-12T15:58:17.092Z,74.41
2018-04-12T16:00:42.833Z,74.79
2018-04-12T16:03:08.564Z,74.76
2018-04-12T16:05:34.315Z,75.02
2018-04-12T16:08:00.093Z,75.33
2018-04-12T16:10:25.824Z,75.04
2018-04-12T16:12:51.563Z,74.90
2018-04-12T16:15:17.294Z,74.77
2018-04-12T16:17:43.041Z,74.54
2018-04-12T16:20:08.774Z,75.10
2018-04-12T16:22:34.508Z,74.85
2018-04-12T16:25:00.253Z,75.62
2018-04-12T16:27:25.996Z,75.86
2018-04-12T16:29:51.876Z,75.54
2018-04-12T16:32:17.616Z,75.45
2018-04-12T16:34:43.344Z,75.44
2018-04-12T16:37:09.124Z,75.49
2018-04-12T16:39:34.861Z,75.57
2018-04-12T16:42:00.596Z,76.16
2018-04-12T16:44:26.824Z,76.46
2018-04-12T16:46:52.572Z,76.79
2018-04-12T16:49:18.300Z,76.50
2018-04-12T16:51:44.039Z,76.77
2018-04-12T16:54:09.768Z,77.65
2018-04-12T16:56:35.518Z,77.82
2018-04-12T16:59:01.241Z,77.99
2018-04-12T17:01:26.982Z,78.24
2018-04-12T17:03:52.709Z,78.53
2018-04-12T17:06:18.459Z,78.33
2018-04-12T17:08:44.508Z,78.92
2018-04-12T17:11:10.256Z,78.93
2018-04-12T17:13:35.976Z,78.63
2018-04-12T17:16:01.709Z,79.02
2018-04-12T17:18:27.439Z,79.17
2018-04-12T17:20:53.188Z,79.10
2018-04-12T17:23:18.913Z,79.31
2018-04-12T17:25:44.636Z,79.57
2018-04-12T17:28:10.366Z,80.01
2018-04-12T17:30:43.939Z,79.69
2018-04-12T17:33:09.667Z,79.78
2018-04-12T17:35:35.414Z,80.17
2018-04-12T17:38:01.152Z,80.38
2018-04-12T17:40:26.869Z,80.47
2018-04-12T17:42:52.609Z,80.56
2018-04-12T17:45:18.345Z,81.11
2018-04-12T17:47:44.099Z,81.30
2018-04-12T17:50:09.817Z,81.48
2018-04-12T17:52:35.557Z,82.12
2018-04-12T17:55:01.289Z,82.38
2018-04-12T17:57:27.035Z,82.42
2018-04-12T17:59:52.759Z,82.78
2018-04-12T18:02:18.518Z,83.19
2018-04-12T18:04:44.239Z,83.17
2018-04-12T18:07:09.996Z,83.16
2018-04-12T18:09:35.777Z,83.40
2018-04-12T18:12:01.513Z,83.44
2018-04-12T18:14:27.239Z,83.41
2018-04-12T18:16:52.963Z,83.75
2018-04-12T18:19:18.684Z,83.88
2018-04-12T18:21:44.400Z,83.91
2018-04-12T18:24:10.140Z,83.89
2018-04-12T18:26:35.897Z,84.23
2018-04-12T18:29:01.645Z,84.11
2018-04-12T18:31:27.361Z,84.46
2018-04-12T18:33:53.092Z,84.42
2018-04-12T18:36:18.942Z,84.41
2018-04-12T18:38:44.696Z,84.52
2018-04-12T18:41:10.681Z,84.34
2018-04-12T18:43:36.427Z,84.59
2018-04-12T18:46:02.176Z,84.63
2018-04-12T18:48:28.031Z,84.92
2018-04-12T18:50:53.823Z,84.75
2018-04-12T18:53:19.847Z,85.23
2018-04-12T18:55:45.577Z,85.12
2018-04-12T18:58:11.316Z,85.13
2018-04-12T19:00:37.065Z,85.38
2018-04-12T19:03:02.810Z,85.43
2018-04-12T19:05:28.552Z,85.29
2018-04-12T19:07:54.301Z,85.28
2018-04-12T19:10:20.232Z,85.44
2018-04-12T19:12:45.972Z,85.40
2018-04-12T19:15:11.725Z,85.51
2018-04-12T19:17:37.545Z,85.70
2018-04-12T19:20:03.299Z,85.67
2018-04-12T19:22:29.211Z,85.77
2018-04-12T19:24:55.226Z,85.73
2018-04-12T19:27:21.080Z,85.79
2018-04-12T19:29:47.052Z,85.67
2018-04-12T19:32:12.800Z,85.89
2018-04-12T19:34:38.659Z,85.70
2018-04-12T19:37:04.428Z,85.81
2018-04-12T19:39:30.173Z,85.58
2018-04-12T19:41:55.923Z,85.93
2018-04-12T19:44:21.671Z,85.87
2018-04-12T19:46:47.412Z,85.84
2018-04-12T19:49:13.161Z,85.96
2018-04-12T19:51:39.072Z,85.85
2018-04-12T19:54:04.822Z,86.02
2018-04-12T19:56:30.561Z,86.22
2018-04-12T19:58:56.305Z,85.85
2018-04-12T20:01:22.089Z,86.11
2018-04-12T20:03:47.840Z,85.94
2018-04-12T20:06:13.579Z,86.10
2018-04-12T20:08:39.474Z,86.19
2018-04-12T20:11:05.504Z,86.01
2018-04-12T20:13:31.272Z,86.15
2018-04-12T20:15:57.018Z,86.37
2018-04-12T20:18:22.836Z,86.20
2018-04-12T20:20:48.556Z,86.10
2018-04-12T20:23:14.310Z,86.18
2018-04-12T20:25:40.069Z,86.08
2018-04-12T20:28:05.840Z,86.29
2018-04-12T20:30:31.639Z,86.35
2018-04-12T20:32:57.537Z,86.67
2018-04-12T20:35:23.287Z,86.64
2018-04-12T20:37:49.023Z,86.66
2018-04-12T20:40:14.797Z,86.68
2018-04-12T20:42:40.541Z,86.78
2018-04-12T20:45:06.293Z,86.59
2018-04-12T20:47:32.126Z,86.80
2018-04-12T20:49:57.925Z,87.03
2018-04-12T20:52:23.662Z,87.19
2018-04-12T20:54:49.473Z,87.30
2018-04-12T20:57:15.140Z,87.12
2018-04-12T20:59:40.891Z,87.20
2018-04-12T21:02:06.647Z,87.49
2018-04-12T21:04:32.396Z,87.45
2018-04-12T21:06:58.125Z,87.67
2018-04-12T21:09:23.864Z,87.52
2018-04-12T21:11:49.589Z,87.62
2018-04-12T21:14:15.337Z,87.65
2018-04-12T21:16:41.068Z,87.58
2018-04-12T21:19:06.807Z,87.61
2018-04-12T21:21:32.540Z,87.79
2018-04-12T21:23:58.276Z,87.95
2018-04-12T21:26:24.002Z,87.89
2018-04-12T21:28:49.768Z,87.88
2018-04-12T21:31:15.500Z,87.80
2018-04-12T21:33:41.242Z,87.84
2018-04-12T21:36:06.979Z,87.79
2018-04-12T21:38:32.724Z,87.83
2018-04-12T21:40:58.456Z,87.86
2018-04-12T21:43:24.208Z,87.81
2018-04-12T21:45:49.964Z,87.80
2018-04-12T21:48:15.688Z,87.98
2018-04-12T21:50:41.412Z,88.23
2018-04-12T21:53:07.128Z,88.04
2018-04-12T21:55:32.857Z,88.15
2018-04-12T21:57:58.591Z,88.29
2018-04-12T22:00:24.337Z,88.15
2018-04-12T22:02:50.050Z,88.21
2018-04-12T22:05:15.769Z,88.26
2018-04-12T22:07:41.484Z,88.37
2018-04-12T22:10:07.208Z,88.45
2018-04-12T22:12:32.937Z,88.34
2018-04-12T22:14:58.664Z,88.50
2018-04-12T22:17:24.380Z,88.80
2018-04-12T22:19:50.105Z,88.76
2018-04-12T22:22:15.832Z,88.58
2018-04-12T22:24:41.565Z,88.84
2018-04-12T22:27:07.305Z,88.91
2018-04-12T22:29:33.030Z,88.92
2018-04-12T22:31:58.757Z,89.05
2018-04-12T22:34:24.500Z,89.02
2018-04-12T22:36:50.237Z,89.06
2018-04-12T22:39:15.981Z,88.87
2018-04-12T22:41:41.798Z,89.16
2018-04-12T22:44:07.553Z,89.22
2018-04-12T22:46:33.288Z,89.44
2018-04-12T22:48:59.008Z,89.51
2018-04-12T22:51:24.741Z,89.71
2018-04-12T22:53:50.476Z,89.89
2018-04-12T22:56:16.211Z,89.79
2018-04-12T22:58:41.924Z,90.02
2018-04-12T23:01:07.656Z,90.04
2018-04-12T23:03:33.380Z,90.06
2018-04-12T23:05:59.144Z,90.26
2018-04-12T23:08:24.861Z,90.09
2018-04-12T23:10:50.597Z,90.15
2018-04-12T23:13:16.337Z,90.00
2018-04-12T23:15:42.061Z,89.96
2018-04-12T23:18:07.780Z,90.02
2018-04-12T23:20:33.512Z,89.89
2018-04-12T23:22:59.240Z,89.84
2018-04-12T23:25:24.970Z,89.75
2018-04-12T23:27:50.704Z,89.77
2018-04-12T23:30:16.442Z,89.81
2018-04-12T23:32:42.187Z,89.93
2018-04-12T23:35:07.928Z,89.85
2018-04-12T23:37:33.644Z,89.70
2018-04-12T23:39:59.464Z,89.62
2018-04-12T23:42:25.196Z,89.62
2018-04-12T23:44:50.940Z,89.69
2018-04-12T23:47:16.790Z,89.57
2018-04-12T23:49:42.533Z,89.45
2018-04-12T23:52:08.262Z,89.39
2018-04-12T23:54:34.004Z,89.29
2018-04-12T23:56:59.736Z,89.23
2018-04-12T23:59:25.469Z,89.19
